sensor_id;sensor_type;location;lat;lon;timestamp;pressure;altitude;pressure_sealevel;temperature;humidity
19286;BME280;9776;50.798;6.430;2023-04-27T00:01:09;100541.56;;;10.41;48.14
19286;BME280;9776;50.798;6.430;2023-04-27T00:03:36;100547.41;;;10.35;48.41
19286;BME280;9776;50.798;6.430;2023-04-27T00:06:03;100546.28;;;10.28;48.54
19286;BME280;9776;50.798;6.430;2023-04-27T00:08:31;100548.81;;;10.30;48.70
19286;BME280;9776;50.798;6.430;2023-04-27T00:10:58;100543.66;;;10.28;48.83
19286;BME280;9776;50.798;6.430;2023-04-27T00:13:24;100550.72;;;10.27;48.79
19286;BME280;9776;50.798;6.430;2023-04-27T00:15:51;100552.13;;;10.32;48.68
19286;BME280;9776;50.798;6.430;2023-04-27T00:18:18;100546.00;;;10.31;48.74
19286;BME280;9776;50.798;6.430;2023-04-27T00:20:45;100543.38;;;10.31;48.65
19286;BME280;9776;50.798;6.430;2023-04-27T00:23:12;100544.22;;;10.32;48.79
19286;BME280;9776;50.798;6.430;2023-04-27T00:25:40;100545.75;;;10.24;49.01
19286;BME280;9776;50.798;6.430;2023-04-27T00:28:06;100547.59;;;10.14;49.41
19286;BME280;9776;50.798;6.430;2023-04-27T00:30:33;100547.28;;;10.08;49.60
19286;BME280;9776;50.798;6.430;2023-04-27T00:33:00;100545.63;;;10.16;49.57
19286;BME280;9776;50.798;6.430;2023-04-27T00:35:26;100550.47;;;10.11;49.53
19286;BME280;9776;50.798;6.430;2023-04-27T00:37:53;100551.59;;;9.99;49.99
19286;BME280;9776;50.798;6.430;2023-04-27T00:40:20;100543.94;;;9.96;50.01
19286;BME280;9776;50.798;6.430;2023-04-27T00:42:48;100551.31;;;10.02;50.03
19286;BME280;9776;50.798;6.430;2023-04-27T00:45:15;100550.75;;;9.99;50.20
19286;BME280;9776;50.798;6.430;2023-04-27T00:47:42;100544.22;;;9.93;50.33
19286;BME280;9776;50.798;6.430;2023-04-27T00:50:09;100545.50;;;9.89;50.61
19286;BME280;9776;50.798;6.430;2023-04-27T00:52:36;100548.13;;;9.89;50.68
19286;BME280;9776;50.798;6.430;2023-04-27T00:55:04;100550.34;;;9.94;50.69
19286;BME280;9776;50.798;6.430;2023-04-27T00:57:32;100537.16;;;9.94;50.74
19286;BME280;9776;50.798;6.430;2023-04-27T01:00:00;100534.94;;;9.89;50.65
19286;BME280;9776;50.798;6.430;2023-04-27T01:02:30;100539.66;;;9.86;50.79
19286;BME280;9776;50.798;6.430;2023-04-27T01:04:56;100538.28;;;9.91;50.74
19286;BME280;9776;50.798;6.430;2023-04-27T01:07:24;100550.78;;;9.89;50.71
19286;BME280;9776;50.798;6.430;2023-04-27T01:09:51;100543.69;;;9.80;50.91
19286;BME280;9776;50.798;6.430;2023-04-27T01:12:18;100548.84;;;9.72;51.22
19286;BME280;9776;50.798;6.430;2023-04-27T01:14:45;100546.19;;;9.72;51.25
19286;BME280;9776;50.798;6.430;2023-04-27T01:17:12;100549.94;;;9.69;51.45
19286;BME280;9776;50.798;6.430;2023-04-27T01:19:39;100548.25;;;9.59;51.73
19286;BME280;9776;50.798;6.430;2023-04-27T01:22:06;100547.16;;;9.52;51.93
19286;BME280;9776;50.798;6.430;2023-04-27T01:24:35;100544.22;;;9.36;52.37
19286;BME280;9776;50.798;6.430;2023-04-27T01:27:01;100544.31;;;9.25;52.53
19286;BME280;9776;50.798;6.430;2023-04-27T01:29:29;100546.81;;;9.17;52.86
19286;BME280;9776;50.798;6.430;2023-04-27T01:31:55;100544.72;;;9.10;52.95
19286;BME280;9776;50.798;6.430;2023-04-27T01:34:22;100541.13;;;9.11;52.94
19286;BME280;9776;50.798;6.430;2023-04-27T01:36:48;100547.09;;;9.13;52.91
19286;BME280;9776;50.798;6.430;2023-04-27T01:39:15;100556.38;;;9.18;52.72
19286;BME280;9776;50.798;6.430;2023-04-27T01:41:43;100550.28;;;9.27;52.58
19286;BME280;9776;50.798;6.430;2023-04-27T01:44:10;100548.22;;;9.30;52.39
19286;BME280;9776;50.798;6.430;2023-04-27T01:46:36;100537.84;;;9.29;52.34
19286;BME280;9776;50.798;6.430;2023-04-27T01:49:03;100541.97;;;9.22;52.59
19286;BME280;9776;50.798;6.430;2023-04-27T01:51:30;100549.81;;;9.12;52.76
19286;BME280;9776;50.798;6.430;2023-04-27T01:53:57;100544.97;;;9.07;52.91
19286;BME280;9776;50.798;6.430;2023-04-27T01:56:23;100536.81;;;9.10;52.80
19286;BME280;9776;50.798;6.430;2023-04-27T01:58:52;100542.78;;;9.12;52.67
19286;BME280;9776;50.798;6.430;2023-04-27T02:01:19;100532.97;;;9.15;52.56
19286;BME280;9776;50.798;6.430;2023-04-27T02:03:46;100543.75;;;9.11;52.58
19286;BME280;9776;50.798;6.430;2023-04-27T02:06:12;100549.28;;;9.08;52.74
19286;BME280;9776;50.798;6.430;2023-04-27T02:08:39;100553.84;;;9.06;52.73
19286;BME280;9776;50.798;6.430;2023-04-27T02:11:05;100543.47;;;9.05;52.71
19286;BME280;9776;50.798;6.430;2023-04-27T02:13:32;100547.31;;;9.01;52.81
19286;BME280;9776;50.798;6.430;2023-04-27T02:16:00;100548.41;;;8.98;52.81
19286;BME280;9776;50.798;6.430;2023-04-27T02:18:28;100556.72;;;8.94;52.78
19286;BME280;9776;50.798;6.430;2023-04-27T02:20:56;100556.00;;;8.92;52.91
19286;BME280;9776;50.798;6.430;2023-04-27T02:23:23;100552.81;;;8.88;52.95
19286;BME280;9776;50.798;6.430;2023-04-27T02:25:49;100552.25;;;8.85;52.79
19286;BME280;9776;50.798;6.430;2023-04-27T03:22:07;100548.00;;;7.80;53.17
19286;BME280;9776;50.798;6.430;2023-04-27T03:24:33;100539.78;;;7.74;53.23
19286;BME280;9776;50.798;6.430;2023-04-27T03:27:00;100540.03;;;7.71;53.29
19286;BME280;9776;50.798;6.430;2023-04-27T03:29:27;100546.28;;;7.70;53.41
19286;BME280;9776;50.798;6.430;2023-04-27T03:31:54;100536.72;;;7.69;53.26
19286;BME280;9776;50.798;6.430;2023-04-27T03:34:21;100544.84;;;7.66;53.37
19286;BME280;9776;50.798;6.430;2023-04-27T03:36:47;100538.19;;;7.62;53.43
19286;BME280;9776;50.798;6.430;2023-04-27T03:39:16;100548.84;;;7.49;53.71
19286;BME280;9776;50.798;6.430;2023-04-27T03:41:42;100546.84;;;7.41;53.96
19286;BME280;9776;50.798;6.430;2023-04-27T03:44:09;100557.22;;;7.43;53.79
19286;BME280;9776;50.798;6.430;2023-04-27T03:46:36;100556.28;;;7.44;53.78
19286;BME280;9776;50.798;6.430;2023-04-27T03:49:02;100553.50;;;7.46;53.69
19286;BME280;9776;50.798;6.430;2023-04-27T03:51:29;100548.16;;;7.47;53.58
19286;BME280;9776;50.798;6.430;2023-04-27T03:53:56;100554.34;;;7.46;53.51
19286;BME280;9776;50.798;6.430;2023-04-27T03:56:24;100561.28;;;7.47;53.47
19286;BME280;9776;50.798;6.430;2023-04-27T03:58:51;100563.16;;;7.45;53.51
19286;BME280;9776;50.798;6.430;2023-04-27T04:01:17;100555.09;;;7.37;53.66
19286;BME280;9776;50.798;6.430;2023-04-27T04:03:45;100558.66;;;7.36;53.69
19286;BME280;9776;50.798;6.430;2023-04-27T04:06:12;100558.94;;;7.33;53.64
19286;BME280;9776;50.798;6.430;2023-04-27T04:08:38;100559.06;;;7.20;53.98
19286;BME280;9776;50.798;6.430;2023-04-27T04:11:05;100562.38;;;7.22;53.77
19286;BME280;9776;50.798;6.430;2023-04-27T04:13:33;100575.75;;;7.19;53.84
19286;BME280;9776;50.798;6.430;2023-04-27T04:16:01;100576.75;;;7.18;53.84
19286;BME280;9776;50.798;6.430;2023-04-27T04:18:28;100582.78;;;7.19;53.84
19286;BME280;9776;50.798;6.430;2023-04-27T04:20:54;100574.91;;;7.19;53.89
19286;BME280;9776;50.798;6.430;2023-04-27T04:23:21;100580.31;;;7.17;53.80
19286;BME280;9776;50.798;6.430;2023-04-27T04:25:48;100586.53;;;7.05;54.13
19286;BME280;9776;50.798;6.430;2023-04-27T04:28:15;100583.44;;;6.89;54.31
19286;BME280;9776;50.798;6.430;2023-04-27T04:30:43;100585.94;;;6.79;54.61
19286;BME280;9776;50.798;6.430;2023-04-27T04:33:10;100581.16;;;6.84;54.44
19286;BME280;9776;50.798;6.430;2023-04-27T04:35:36;100591.19;;;6.91;54.36
19286;BME280;9776;50.798;6.430;2023-04-27T04:38:03;100590.47;;;6.89;54.31
19286;BME280;9776;50.798;6.430;2023-04-27T04:40:30;100586.28;;;6.86;54.38
19286;BME280;9776;50.798;6.430;2023-04-27T04:42:56;100588.19;;;6.84;54.50
19286;BME280;9776;50.798;6.430;2023-04-27T04:45:23;100583.69;;;6.86;54.41
19286;BME280;9776;50.798;6.430;2023-04-27T04:47:51;100588.31;;;6.82;54.55
19286;BME280;9776;50.798;6.430;2023-04-27T04:50:19;100580.44;;;6.82;54.59
19286;BME280;9776;50.798;6.430;2023-04-27T04:52:46;100586.78;;;6.80;54.37
19286;BME280;9776;50.798;6.430;2023-04-27T04:55:13;100601.56;;;6.81;54.42
19286;BME280;9776;50.798;6.430;2023-04-27T04:57:39;100600.59;;;6.82;54.42
19286;BME280;9776;50.798;6.430;2023-04-27T05:00:07;100592.50;;;6.85;54.50
19286;BME280;9776;50.798;6.430;2023-04-27T05:02:36;100594.03;;;6.88;54.57
19286;BME280;9776;50.798;6.430;2023-04-27T05:05:05;100593.94;;;6.89;54.48
19286;BME280;9776;50.798;6.430;2023-04-27T05:07:32;100596.56;;;6.89;54.55
19286;BME280;9776;50.798;6.430;2023-04-27T05:09:58;100603.22;;;6.93;54.60
19286;BME280;9776;50.798;6.430;2023-04-27T05:12:25;100600.25;;;6.98;54.51
19286;BME280;9776;50.798;6.430;2023-04-27T05:14:52;100600.13;;;6.99;54.66
19286;BME280;9776;50.798;6.430;2023-04-27T05:17:18;100606.44;;;6.97;55.06
19286;BME280;9776;50.798;6.430;2023-04-27T05:19:45;100608.22;;;6.96;55.23
19286;BME280;9776;50.798;6.430;2023-04-27T05:22:13;100606.66;;;7.05;55.28
19286;BME280;9776;50.798;6.430;2023-04-27T05:24:40;100609.41;;;7.14;55.09
19286;BME280;9776;50.798;6.430;2023-04-27T05:27:06;100612.88;;;7.26;54.99
19286;BME280;9776;50.798;6.430;2023-04-27T05:29:33;100614.06;;;7.33;55.00
19286;BME280;9776;50.798;6.430;2023-04-27T05:31:59;100618.09;;;7.37;55.08
19286;BME280;9776;50.798;6.430;2023-04-27T05:34:26;100623.22;;;7.50;55.04
19286;BME280;9776;50.798;6.430;2023-04-27T05:36:52;100627.59;;;7.60;54.90
19286;BME280;9776;50.798;6.430;2023-04-27T05:39:20;100626.72;;;7.71;54.90
19286;BME280;9776;50.798;6.430;2023-04-27T05:41:47;100621.34;;;7.83;54.78
19286;BME280;9776;50.798;6.430;2023-04-27T05:44:14;100628.66;;;8.00;54.81
19286;BME280;9776;50.798;6.430;2023-04-27T05:46:40;100632.03;;;8.23;54.66
19286;BME280;9776;50.798;6.430;2023-04-27T05:49:07;100631.13;;;8.45;54.50
19286;BME280;9776;50.798;6.430;2023-04-27T05:51:34;100627.25;;;8.70;54.30
19286;BME280;9776;50.798;6.430;2023-04-27T05:54:02;100626.56;;;8.98;53.88
19286;BME280;9776;50.798;6.430;2023-04-27T05:56:30;100629.44;;;9.25;53.49
19286;BME280;9776;50.798;6.430;2023-04-27T05:58:57;100632.66;;;9.38;53.17
19286;BME280;9776;50.798;6.430;2023-04-27T06:01:23;100636.06;;;9.59;52.87
19286;BME280;9776;50.798;6.430;2023-04-27T06:03:51;100634.84;;;9.83;52.35
19286;BME280;9776;50.798;6.430;2023-04-27T06:06:17;100629.72;;;9.81;52.24
19286;BME280;9776;50.798;6.430;2023-04-27T06:08:44;100636.78;;;9.71;52.53
19286;BME280;9776;50.798;6.430;2023-04-27T06:11:10;100636.63;;;9.73;52.55
19286;BME280;9776;50.798;6.430;2023-04-27T06:13:38;100636.69;;;10.01;52.11
19286;BME280;9776;50.798;6.430;2023-04-27T06:16:05;100638.22;;;10.13;51.71
19286;BME280;9776;50.798;6.430;2023-04-27T06:18:32;100632.78;;;10.44;50.89
19286;BME280;9776;50.798;6.430;2023-04-27T06:20:59;100633.56;;;10.73;50.06
19286;BME280;9776;50.798;6.430;2023-04-27T06:23:26;100635.78;;;11.14;49.21
19286;BME280;9776;50.798;6.430;2023-04-27T06:25:52;100635.22;;;11.48;48.41
19286;BME280;9776;50.798;6.430;2023-04-27T06:28:19;100628.47;;;11.80;47.48
19286;BME280;9776;50.798;6.430;2023-04-27T06:30:47;100624.66;;;12.10;46.86
19286;BME280;9776;50.798;6.430;2023-04-27T06:33:15;100633.00;;;12.41;46.41
19286;BME280;9776;50.798;6.430;2023-04-27T06:35:41;100624.84;;;12.52;46.18
19286;BME280;9776;50.798;6.430;2023-04-27T06:38:08;100632.38;;;12.47;46.16
19286;BME280;9776;50.798;6.430;2023-04-27T06:40:35;100634.91;;;12.74;45.95
19286;BME280;9776;50.798;6.430;2023-04-27T06:43:02;100633.28;;;12.81;45.74
19286;BME280;9776;50.798;6.430;2023-04-27T06:45:29;100640.78;;;12.86;45.72
19286;BME280;9776;50.798;6.430;2023-04-27T06:47:57;100638.59;;;13.07;45.18
19286;BME280;9776;50.798;6.430;2023-04-27T06:50:23;100646.59;;;13.15;45.00
19286;BME280;9776;50.798;6.430;2023-04-27T06:52:50;100637.06;;;13.30;44.66
19286;BME280;9776;50.798;6.430;2023-04-27T06:55:19;100641.50;;;13.63;44.17
19286;BME280;9776;50.798;6.430;2023-04-27T06:57:45;100636.19;;;13.72;43.80
19286;BME280;9776;50.798;6.430;2023-04-27T07:00:13;100628.13;;;14.05;43.06
19286;BME280;9776;50.798;6.430;2023-04-27T07:02:40;100629.31;;;14.27;42.79
19286;BME280;9776;50.798;6.430;2023-04-27T07:05:08;100633.34;;;14.47;42.51
19286;BME280;9776;50.798;6.430;2023-04-27T07:07:35;100629.44;;;14.90;41.76
19286;BME280;9776;50.798;6.430;2023-04-27T07:10:01;100636.16;;;15.25;41.14
19286;BME280;9776;50.798;6.430;2023-04-27T07:12:28;100624.94;;;15.46;40.95
19286;BME280;9776;50.798;6.430;2023-04-27T07:14:55;100627.03;;;15.66;40.20
19286;BME280;9776;50.798;6.430;2023-04-27T07:17:21;100635.53;;;15.84;39.73
19286;BME280;9776;50.798;6.430;2023-04-27T07:19:48;100631.06;;;15.85;39.63
19286;BME280;9776;50.798;6.430;2023-04-27T07:22:16;100631.31;;;16.21;38.94
19286;BME280;9776;50.798;6.430;2023-04-27T07:24:42;100618.88;;;16.59;38.07
19286;BME280;9776;50.798;6.430;2023-04-27T07:27:09;100624.03;;;16.75;37.56
19286;BME280;9776;50.798;6.430;2023-04-27T07:29:35;100628.91;;;17.15;36.51
19286;BME280;9776;50.798;6.430;2023-04-27T07:32:04;100621.25;;;17.41;35.68
19286;BME280;9776;50.798;6.430;2023-04-27T07:34:31;100621.94;;;17.79;35.18
19286;BME280;9776;50.798;6.430;2023-04-27T07:36:58;100628.66;;;18.11;34.75
19286;BME280;9776;50.798;6.430;2023-04-27T07:39:26;100617.91;;;18.26;34.17
19286;BME280;9776;50.798;6.430;2023-04-27T07:41:52;100616.69;;;18.49;34.23
19286;BME280;9776;50.798;6.430;2023-04-27T07:44:19;100622.03;;;18.49;34.12
19286;BME280;9776;50.798;6.430;2023-04-27T07:46:46;100613.88;;;18.57;34.01
19286;BME280;9776;50.798;6.430;2023-04-27T07:49:13;100610.91;;;18.74;33.81
19286;BME280;9776;50.798;6.430;2023-04-27T07:51:40;100615.97;;;18.96;33.15
19286;BME280;9776;50.798;6.430;2023-04-27T07:54:07;100616.94;;;19.51;32.33
19286;BME280;9776;50.798;6.430;2023-04-27T07:56:35;100611.06;;;20.01;31.90
19286;BME280;9776;50.798;6.430;2023-04-27T07:59:02;100619.59;;;20.51;31.08
19286;BME280;9776;50.798;6.430;2023-04-27T08:01:28;100619.13;;;20.93;30.42
19286;BME280;9776;50.798;6.430;2023-04-27T08:03:55;100609.78;;;21.22;29.86
19286;BME280;9776;50.798;6.430;2023-04-27T08:06:21;100612.34;;;21.61;29.48
19286;BME280;9776;50.798;6.430;2023-04-27T08:08:48;100604.72;;;21.96;29.14
19286;BME280;9776;50.798;6.430;2023-04-27T08:11:15;100594.31;;;22.06;28.87
19286;BME280;9776;50.798;6.430;2023-04-27T08:13:43;100595.69;;;21.77;29.04
19286;BME280;9776;50.798;6.430;2023-04-27T08:16:10;100591.69;;;21.55;29.18
19286;BME280;9776;50.798;6.430;2023-04-27T08:18:36;100594.97;;;21.57;29.07
19286;BME280;9776;50.798;6.430;2023-04-27T08:21:03;100590.75;;;21.74;28.79
19286;BME280;9776;50.798;6.430;2023-04-27T08:23:30;100588.84;;;22.19;28.25
19286;BME280;9776;50.798;6.430;2023-04-27T08:25:57;100588.28;;;22.85;27.56
19286;BME280;9776;50.798;6.430;2023-04-27T08:28:24;100580.22;;;23.39;26.82
19286;BME280;9776;50.798;6.430;2023-04-27T08:30:51;100580.63;;;23.36;26.55
19286;BME280;9776;50.798;6.430;2023-04-27T08:33:18;100585.03;;;22.76;26.85
19286;BME280;9776;50.798;6.430;2023-04-27T08:35:45;100584.50;;;22.86;27.02
19286;BME280;9776;50.798;6.430;2023-04-27T08:38:11;100590.38;;;23.37;26.37
19286;BME280;9776;50.798;6.430;2023-04-27T08:40:41;100588.63;;;24.02;25.59
19286;BME280;9776;50.798;6.430;2023-04-27T08:43:08;100580.75;;;24.65;24.90
19286;BME280;9776;50.798;6.430;2023-04-27T08:45:35;100592.50;;;25.06;24.23
19286;BME280;9776;50.798;6.430;2023-04-27T08:48:03;100585.94;;;25.02;24.01
19286;BME280;9776;50.798;6.430;2023-04-27T08:50:30;100588.88;;;25.40;23.22
19286;BME280;9776;50.798;6.430;2023-04-27T08:52:57;100586.28;;;26.02;22.60
19286;BME280;9776;50.798;6.430;2023-04-27T08:55:24;100582.56;;;26.52;21.88
19286;BME280;9776;50.798;6.430;2023-04-27T08:57:54;100584.97;;;26.87;21.18
19286;BME280;9776;50.798;6.430;2023-04-27T09:00:23;100578.84;;;27.14;21.12
19286;BME280;9776;50.798;6.430;2023-04-27T09:02:49;100573.59;;;26.85;21.23
19286;BME280;9776;50.798;6.430;2023-04-27T09:05:18;100564.41;;;26.86;21.34
19286;BME280;9776;50.798;6.430;2023-04-27T09:07:55;100571.66;;;27.02;20.98
19286;BME280;9776;50.798;6.430;2023-04-27T09:10:22;100564.09;;;27.26;20.94
19286;BME280;9776;50.798;6.430;2023-04-27T09:12:56;100558.53;;;27.86;19.97
19286;BME280;9776;50.798;6.430;2023-04-27T09:15:23;100558.94;;;28.32;20.01
19286;BME280;9776;50.798;6.430;2023-04-27T09:17:54;100569.28;;;28.35;19.06
19286;BME280;9776;50.798;6.430;2023-04-27T09:20:23;100574.03;;;28.17;19.02
19286;BME280;9776;50.798;6.430;2023-04-27T09:22:52;100560.28;;;28.02;19.34
19286;BME280;9776;50.798;6.430;2023-04-27T09:25:27;100564.00;;;27.91;19.21
19286;BME280;9776;50.798;6.430;2023-04-27T09:27:55;100565.47;;;27.77;19.44
19286;BME280;9776;50.798;6.430;2023-04-27T09:30:22;100563.75;;;27.93;19.12
19286;BME280;9776;50.798;6.430;2023-04-27T09:32:53;100556.13;;;28.17;18.98
19286;BME280;9776;50.798;6.430;2023-04-27T09:35:24;100557.38;;;29.35;18.16
19286;BME280;9776;50.798;6.430;2023-04-27T09:37:52;100552.59;;;29.82;17.84
19286;BME280;9776;50.798;6.430;2023-04-27T09:40:20;100554.25;;;29.93;17.88
19286;BME280;9776;50.798;6.430;2023-04-27T09:42:50;100553.72;;;30.11;17.44
19286;BME280;9776;50.798;6.430;2023-04-27T09:45:18;100552.34;;;30.49;16.96
19286;BME280;9776;50.798;6.430;2023-04-27T09:47:45;100559.59;;;30.89;16.68
19286;BME280;9776;50.798;6.430;2023-04-27T09:50:12;100547.31;;;30.91;16.54
19286;BME280;9776;50.798;6.430;2023-04-27T09:52:41;100543.56;;;30.77;16.91
19286;BME280;9776;50.798;6.430;2023-04-27T09:55:09;100554.44;;;29.51;17.35
19286;BME280;9776;50.798;6.430;2023-04-27T09:57:44;100557.34;;;29.30;17.42
19286;BME280;9776;50.798;6.430;2023-04-27T10:00:22;100551.75;;;29.76;17.07
19286;BME280;9776;50.798;6.430;2023-04-27T10:03:02;100541.13;;;29.60;17.07
19286;BME280;9776;50.798;6.430;2023-04-27T10:05:45;100537.84;;;29.63;17.37
19286;BME280;9776;50.798;6.430;2023-04-27T10:08:17;100541.13;;;29.70;17.25
19286;BME280;9776;50.798;6.430;2023-04-27T10:10:46;100534.66;;;29.86;16.91
19286;BME280;9776;50.798;6.430;2023-04-27T10:13:20;100533.56;;;29.97;17.10
19286;BME280;9776;50.798;6.430;2023-04-27T10:15:47;100532.75;;;29.92;17.04
19286;BME280;9776;50.798;6.430;2023-04-27T10:18:24;100516.66;;;30.25;16.31
19286;BME280;9776;50.798;6.430;2023-04-27T10:20:51;100512.03;;;30.11;16.83
19286;BME280;9776;50.798;6.430;2023-04-27T10:23:23;100520.88;;;29.20;17.33
19286;BME280;9776;50.798;6.430;2023-04-27T10:25:50;100508.94;;;28.64;17.54
19286;BME280;9776;50.798;6.430;2023-04-27T10:28:17;100515.16;;;28.60;17.63
19286;BME280;9776;50.798;6.430;2023-04-27T10:30:46;100513.00;;;29.24;17.31
19286;BME280;9776;50.798;6.430;2023-04-27T10:33:15;100512.28;;;29.69;16.82
19286;BME280;9776;50.798;6.430;2023-04-27T10:35:44;100505.22;;;29.78;16.91
19286;BME280;9776;50.798;6.430;2023-04-27T10:38:20;100493.00;;;29.91;16.57
19286;BME280;9776;50.798;6.430;2023-04-27T10:40:56;100498.88;;;30.68;16.14
19286;BME280;9776;50.798;6.430;2023-04-27T10:43:24;100504.66;;;31.26;15.61
19286;BME280;9776;50.798;6.430;2023-04-27T10:45:51;100500.38;;;31.59;15.55
19286;BME280;9776;50.798;6.430;2023-04-27T10:48:18;100505.41;;;31.80;15.45
19286;BME280;9776;50.798;6.430;2023-04-27T10:50:45;100513.19;;;31.97;15.59
19286;BME280;9776;50.798;6.430;2023-04-27T10:53:12;100509.91;;;31.95;15.43
19286;BME280;9776;50.798;6.430;2023-04-27T10:55:39;100501.31;;;31.83;15.23
19286;BME280;9776;50.798;6.430;2023-04-27T10:58:07;100501.16;;;32.03;15.09
19286;BME280;9776;50.798;6.430;2023-04-27T11:00:35;100501.34;;;32.40;14.98
19286;BME280;9776;50.798;6.430;2023-04-27T11:03:11;100493.06;;;32.45;14.82
19286;BME280;9776;50.798;6.430;2023-04-27T11:05:39;100494.38;;;32.24;14.87
19286;BME280;9776;50.798;6.430;2023-04-27T11:08:08;100492.97;;;32.03;14.94
19286;BME280;9776;50.798;6.430;2023-04-27T11:10:37;100485.59;;;31.65;15.28
19286;BME280;9776;50.798;6.430;2023-04-27T11:13:10;100486.69;;;31.69;15.50
19286;BME280;9776;50.798;6.430;2023-04-27T11:15:47;100482.72;;;31.51;15.63
19286;BME280;9776;50.798;6.430;2023-04-27T11:18:14;100476.53;;;31.30;15.67
19286;BME280;9776;50.798;6.430;2023-04-27T11:20:42;100482.59;;;31.22;15.75
19286;BME280;9776;50.798;6.430;2023-04-27T11:23:09;100476.28;;;31.27;15.46
19286;BME280;9776;50.798;6.430;2023-04-27T11:25:36;100472.75;;;30.67;15.86
19286;BME280;9776;50.798;6.430;2023-04-27T11:28:03;100464.13;;;30.05;16.41
19286;BME280;9776;50.798;6.430;2023-04-27T11:30:31;100460.06;;;29.87;16.50
19286;BME280;9776;50.798;6.430;2023-04-27T11:33:06;100454.69;;;28.85;17.27
19286;BME280;9776;50.798;6.430;2023-04-27T11:35:33;100452.38;;;28.56;17.35
19286;BME280;9776;50.798;6.430;2023-04-27T11:38:00;100449.56;;;29.03;16.92
19286;BME280;9776;50.798;6.430;2023-04-27T11:40:27;100442.09;;;29.91;16.56
19286;BME280;9776;50.798;6.430;2023-04-27T11:42:57;100445.19;;;30.79;15.62
19286;BME280;9776;50.798;6.430;2023-04-27T11:45:25;100445.41;;;31.31;15.44
19286;BME280;9776;50.798;6.430;2023-04-27T11:47:54;100442.81;;;31.55;15.36
19286;BME280;9776;50.798;6.430;2023-04-27T11:50:23;100442.50;;;31.62;15.33
19286;BME280;9776;50.798;6.430;2023-04-27T11:52:51;100439.06;;;31.51;15.22
19286;BME280;9776;50.798;6.430;2023-04-27T11:55:19;100438.19;;;31.17;15.35
19286;BME280;9776;50.798;6.430;2023-04-27T11:57:46;100428.06;;;31.17;15.43
19286;BME280;9776;50.798;6.430;2023-04-27T12:00:13;100429.00;;;31.41;15.37
19286;BME280;9776;50.798;6.430;2023-04-27T12:02:41;100421.91;;;31.02;15.44
19286;BME280;9776;50.798;6.430;2023-04-27T12:05:09;100418.06;;;31.03;15.66
19286;BME280;9776;50.798;6.430;2023-04-27T12:07:37;100414.22;;;31.09;15.69
19286;BME280;9776;50.798;6.430;2023-04-27T12:10:05;100423.03;;;30.96;15.50
19286;BME280;9776;50.798;6.430;2023-04-27T12:12:32;100428.75;;;30.94;15.54
19286;BME280;9776;50.798;6.430;2023-04-27T12:14:58;100430.31;;;31.49;15.09
19286;BME280;9776;50.798;6.430;2023-04-27T12:17:25;100423.31;;;32.06;14.79
19286;BME280;9776;50.798;6.430;2023-04-27T12:19:52;100435.75;;;32.17;14.58
19286;BME280;9776;50.798;6.430;2023-04-27T12:22:20;100425.50;;;32.27;14.67
19286;BME280;9776;50.798;6.430;2023-04-27T12:24:47;100424.66;;;32.98;14.36
19286;BME280;9776;50.798;6.430;2023-04-27T12:27:14;100422.97;;;33.21;14.17
19286;BME280;9776;50.798;6.430;2023-04-27T12:29:41;100416.91;;;33.24;14.13
19286;BME280;9776;50.798;6.430;2023-04-27T12:32:08;100410.53;;;33.47;14.02
19286;BME280;9776;50.798;6.430;2023-04-27T12:34:34;100409.34;;;33.53;13.99
19286;BME280;9776;50.798;6.430;2023-04-27T12:37:01;100406.94;;;32.29;14.57
19286;BME280;9776;50.798;6.430;2023-04-27T12:39:29;100412.03;;;31.50;15.46
19286;BME280;9776;50.798;6.430;2023-04-27T12:41:55;100408.25;;;30.43;15.88
19286;BME280;9776;50.798;6.430;2023-04-27T12:44:23;100399.13;;;29.38;16.59
19286;BME280;9776;50.798;6.430;2023-04-27T12:46:49;100399.91;;;28.46;17.65
19286;BME280;9776;50.798;6.430;2023-04-27T12:49:16;100395.09;;;27.69;18.28
19286;BME280;9776;50.798;6.430;2023-04-27T12:51:43;100401.00;;;27.08;18.86
19286;BME280;9776;50.798;6.430;2023-04-27T12:54:10;100396.75;;;26.25;19.45
19286;BME280;9776;50.798;6.430;2023-04-27T12:56:38;100407.97;;;25.62;20.31
19286;BME280;9776;50.798;6.430;2023-04-27T12:59:06;100404.44;;;24.76;20.99
19286;BME280;9776;50.798;6.430;2023-04-27T13:01:32;100398.56;;;24.51;21.26
19286;BME280;9776;50.798;6.430;2023-04-27T13:04:02;100400.69;;;24.49;21.21
19286;BME280;9776;50.798;6.430;2023-04-27T13:06:29;100404.25;;;24.26;21.48
19286;BME280;9776;50.798;6.430;2023-04-27T13:08:56;100397.19;;;24.25;21.65
19286;BME280;9776;50.798;6.430;2023-04-27T13:11:23;100406.00;;;24.09;21.86
19286;BME280;9776;50.798;6.430;2023-04-27T13:13:51;100389.44;;;23.71;22.19
19286;BME280;9776;50.798;6.430;2023-04-27T13:16:19;100390.28;;;23.30;22.50
19286;BME280;9776;50.798;6.430;2023-04-27T13:18:46;100386.66;;;22.47;23.38
19286;BME280;9776;50.798;6.430;2023-04-27T13:21:15;100382.38;;;22.03;23.95
19286;BME280;9776;50.798;6.430;2023-04-27T13:23:41;100386.72;;;22.04;24.17
19286;BME280;9776;50.798;6.430;2023-04-27T13:26:08;100379.19;;;22.13;24.12
19286;BME280;9776;50.798;6.430;2023-04-27T13:28:35;100372.38;;;22.28;24.01
19286;BME280;9776;50.798;6.430;2023-04-27T13:31:03;100375.38;;;22.38;24.11
19286;BME280;9776;50.798;6.430;2023-04-27T13:33:30;100377.09;;;22.51;23.85
19286;BME280;9776;50.798;6.430;2023-04-27T13:35:57;100373.41;;;22.63;23.79
19286;BME280;9776;50.798;6.430;2023-04-27T13:38:26;100370.56;;;22.58;23.85
19286;BME280;9776;50.798;6.430;2023-04-27T13:40:53;100369.22;;;22.49;24.15
19286;BME280;9776;50.798;6.430;2023-04-27T13:43:19;100363.97;;;22.25;24.40
19286;BME280;9776;50.798;6.430;2023-04-27T13:45:46;100367.00;;;22.10;24.82
19286;BME280;9776;50.798;6.430;2023-04-27T13:48:15;100364.06;;;21.93;24.96
19286;BME280;9776;50.798;6.430;2023-04-27T13:50:41;100348.00;;;21.87;24.76
19286;BME280;9776;50.798;6.430;2023-04-27T13:53:08;100358.53;;;21.88;24.92
19286;BME280;9776;50.798;6.430;2023-04-27T13:55:36;100350.69;;;21.87;25.18
19286;BME280;9776;50.798;6.430;2023-04-27T13:58:02;100346.50;;;21.73;25.25
19286;BME280;9776;50.798;6.430;2023-04-27T14:00:29;100331.69;;;21.64;25.35